Terminal Aerodrome Forecast
Issued by NWS Bismarck, ND

Home | Current Version | Previous Version | Text Only | Print | Product List | Glossary On
Versions: 1 2 3 4 5 6 7 8 9 10 11 12 13 14 15 16 17
000
FTUS43 KBIS 280500 AAA
TAFISN
TAF AMD
KISN 280556Z 2806/2906 VRB03KT P6SM SCT180 BKN220
     FM281200 27006KT P6SM SCT150 BKN200
      TEMPO 2814/2816 34008KT SCT004 BKN012
     FM281600 33015KT P6SM VCSH OVC004
     FM281900 32018G25KT P6SM -SHSN BKN008 OVC012
     FM290100 31015G20KT P6SM -SHSN OVC009=

USA.gov is the U.S. government's official web portal to all federal, state and local government web resources and services.